createdAt,value
2023-03-16T00:00:51.756Z,3.42
2023-03-16T00:03:20.441Z,3.42
2023-03-16T00:05:48.574Z,3.29
2023-03-16T00:08:15.828Z,3.38
2023-03-16T00:10:46.905Z,3.33
2023-03-16T00:13:17.800Z,3.29
2023-03-16T00:15:55.792Z,3.46
2023-03-16T00:18:27.106Z,3.47
2023-03-16T00:20:55.524Z,3.45
2023-03-16T00:23:27.234Z,3.38
2023-03-16T00:25:58.833Z,3.45
2023-03-16T00:28:27.494Z,3.47
2023-03-16T00:30:58.909Z,3.53
2023-03-16T00:33:26.153Z,3.46
2023-03-16T00:36:03.798Z,3.31
2023-03-16T00:38:36.600Z,3.49
2023-03-16T00:41:05.458Z,3.47
2023-03-16T00:43:40.836Z,3.44
2023-03-16T00:46:13.355Z,3.46
2023-03-16T00:48:42.705Z,3.45
2023-03-16T00:51:15.314Z,3.48
2023-03-16T00:53:43.715Z,3.48
2023-03-16T00:56:11.737Z,3.38
2023-03-16T00:58:40.205Z,3.46
2023-03-16T01:01:16.337Z,3.48
2023-03-16T01:03:43.050Z,3.50
2023-03-16T01:06:15.134Z,3.51
2023-03-16T01:08:41.975Z,3.49
2023-03-16T01:11:17.348Z,3.50
2023-03-16T01:13:46.962Z,3.51
2023-03-16T01:16:13.485Z,3.47
2023-03-16T01:18:39.891Z,3.42
2023-03-16T01:21:08.946Z,3.29
2023-03-16T01:23:36.452Z,3.57
2023-03-16T01:26:02.931Z,3.61
2023-03-16T01:28:32.437Z,3.58
2023-03-16T01:31:02.226Z,3.55
2023-03-16T01:33:29.485Z,3.60
2023-03-16T01:36:01.773Z,3.68
2023-03-16T01:38:28.535Z,3.67
2023-03-16T01:40:55.888Z,3.72
2023-03-16T01:43:25.393Z,3.68
2023-03-16T01:46:06.957Z,3.75
2023-03-16T01:48:49.702Z,3.87
2023-03-16T01:51:22.326Z,3.93
2023-03-16T01:53:55.904Z,3.90
2023-03-16T01:56:29.724Z,3.91
2023-03-16T01:58:59.369Z,3.94
2023-03-16T02:01:29.099Z,4.00
2023-03-16T02:04:02.685Z,3.98
2023-03-16T02:06:29.770Z,4.00
2023-03-16T02:08:57.465Z,4.07
2023-03-16T02:11:25.334Z,4.01
2023-03-16T02:13:52.675Z,3.95
2023-03-16T02:16:22.519Z,3.96
2023-03-16T02:18:50.857Z,4.00
2023-03-16T02:21:35.402Z,3.72
2023-03-16T02:24:03.764Z,4.01
2023-03-16T02:26:52.153Z,4.12
2023-03-16T02:29:46.542Z,4.15
2023-03-16T02:32:14.850Z,4.15
2023-03-16T02:34:42.322Z,3.77
2023-03-16T02:37:09.755Z,3.96
2023-03-16T02:39:36.139Z,4.05
2023-03-16T02:42:02.800Z,4.04
2023-03-16T02:44:33.912Z,3.86
2023-03-16T02:47:05.957Z,4.12
2023-03-16T02:49:44.709Z,4.03
2023-03-16T02:52:11.832Z,4.02
2023-03-16T02:54:38.254Z,4.02
2023-03-16T02:57:04.951Z,3.98
2023-03-16T02:59:31.501Z,3.76
2023-03-16T03:01:58.060Z,4.07
2023-03-16T03:04:24.633Z,4.15
2023-03-16T03:06:51.922Z,4.11
2023-03-16T03:09:19.081Z,4.15
2023-03-16T03:11:48.693Z,4.04
2023-03-16T03:14:16.778Z,4.28
2023-03-16T03:16:46.528Z,4.22
2023-03-16T03:19:13.726Z,4.24
2023-03-16T03:21:41.478Z,4.25
2023-03-16T03:24:08.763Z,4.29
2023-03-16T03:26:37.772Z,4.27
2023-03-16T03:29:04.637Z,4.32
2023-03-16T03:31:31.027Z,4.44
2023-03-16T03:33:57.548Z,4.17
2023-03-16T03:36:23.919Z,4.28
2023-03-16T03:38:50.269Z,4.14
2023-03-16T03:41:16.646Z,4.39
2023-03-16T03:43:44.397Z,4.40
2023-03-16T03:46:10.913Z,4.32
2023-03-16T03:48:37.384Z,4.37
2023-03-16T03:51:04.063Z,4.27
2023-03-16T03:53:30.426Z,4.30
2023-03-16T03:55:56.818Z,4.25
2023-03-16T03:58:23.264Z,4.28
2023-03-16T04:00:49.615Z,4.30
2023-03-16T04:03:17.565Z,4.37
2023-03-16T04:05:44.141Z,4.31
2023-03-16T04:08:10.591Z,4.35
2023-03-16T04:10:36.989Z,4.38
2023-03-16T04:13:03.376Z,4.31
2023-03-16T04:15:32.837Z,4.12
2023-03-16T04:17:59.593Z,4.39
2023-03-16T04:20:26.297Z,4.40
2023-03-16T04:22:58.347Z,4.35
2023-03-16T04:25:26.866Z,4.33
2023-03-16T04:27:53.444Z,4.03
2023-03-16T04:30:19.875Z,4.26
2023-03-16T04:32:46.305Z,4.35
2023-03-16T04:35:12.836Z,4.42
2023-03-16T04:37:39.205Z,4.26
2023-03-16T04:40:11.740Z,4.19
2023-03-16T04:42:38.131Z,4.31
2023-03-16T04:45:04.828Z,4.13
2023-03-16T04:47:33.769Z,4.30
2023-03-16T04:50:02.654Z,4.45
2023-03-16T04:52:29.425Z,4.35
2023-03-16T04:54:55.787Z,4.31
2023-03-16T04:57:22.566Z,4.21
2023-03-16T04:59:49.357Z,4.38
2023-03-16T05:02:16.895Z,4.43
2023-03-16T05:04:43.801Z,4.41
2023-03-16T05:07:10.281Z,4.48
2023-03-16T05:09:36.713Z,4.40
2023-03-16T05:12:03.243Z,4.31
2023-03-16T05:14:29.604Z,4.36
2023-03-16T05:16:55.984Z,4.40
2023-03-16T05:19:22.698Z,4.46
2023-03-16T05:21:49.272Z,4.47
2023-03-16T05:24:15.634Z,4.48
2023-03-16T05:26:42.011Z,4.48
2023-03-16T05:29:08.387Z,4.56
2023-03-16T05:31:36.225Z,4.46
2023-03-16T05:34:02.693Z,4.48
2023-03-16T05:36:29.088Z,4.53
2023-03-16T05:38:55.611Z,4.55
2023-03-16T05:41:22.900Z,4.49
2023-03-16T05:43:49.271Z,4.47
2023-03-16T05:46:15.804Z,4.60
2023-03-16T05:48:42.281Z,4.71
2023-03-16T05:51:08.666Z,4.60
2023-03-16T05:53:35.524Z,4.68
2023-03-16T05:56:02.323Z,4.59
2023-03-16T05:58:28.673Z,4.58
2023-03-16T06:00:55.327Z,4.65
2023-03-16T06:03:22.730Z,4.51
2023-03-16T06:05:49.395Z,4.47
2023-03-16T06:08:15.850Z,4.57
2023-03-16T06:10:42.229Z,4.32
2023-03-16T06:13:08.609Z,4.69
2023-03-16T06:15:35.054Z,4.65
2023-03-16T06:18:01.424Z,4.57
2023-03-16T06:20:27.960Z,4.57
2023-03-16T06:22:54.522Z,4.59
2023-03-16T06:25:20.904Z,4.66
2023-03-16T06:27:49.078Z,4.60
2023-03-16T06:30:16.368Z,4.64
2023-03-16T06:32:43.067Z,4.67
2023-03-16T06:35:09.954Z,4.69
2023-03-16T06:37:36.415Z,4.62
2023-03-16T06:40:02.851Z,4.52
2023-03-16T06:42:29.236Z,4.49
2023-03-16T06:44:55.589Z,4.57
2023-03-16T06:47:22.041Z,4.74
2023-03-16T06:49:48.748Z,4.67
2023-03-16T06:52:15.183Z,4.83
2023-03-16T06:54:41.591Z,4.80
2023-03-16T06:57:08.592Z,4.73
2023-03-16T06:59:35.170Z,4.95
2023-03-16T07:02:01.893Z,4.94
2023-03-16T07:04:28.498Z,4.95
2023-03-16T07:06:54.908Z,4.95
2023-03-16T07:09:21.955Z,4.98
2023-03-16T07:11:48.378Z,5.05
2023-03-16T07:14:14.778Z,5.00
2023-03-16T07:16:41.173Z,4.98
2023-03-16T07:19:07.558Z,4.81
2023-03-16T07:21:39.256Z,4.95
2023-03-16T07:24:07.455Z,5.00
2023-03-16T07:26:33.942Z,5.16
2023-03-16T07:29:00.708Z,4.90
2023-03-16T07:31:27.717Z,5.06
2023-03-16T07:33:54.124Z,5.06
2023-03-16T07:36:20.565Z,5.15
2023-03-16T07:38:47.133Z,5.07
2023-03-16T07:41:14.086Z,5.06
2023-03-16T07:43:40.462Z,5.08
2023-03-16T07:46:06.946Z,5.12
2023-03-16T07:48:33.379Z,5.22
2023-03-16T07:50:59.772Z,5.11
2023-03-16T07:53:26.137Z,5.31
2023-03-16T07:55:52.918Z,5.41
2023-03-16T07:58:19.331Z,5.52
2023-03-16T08:00:45.678Z,5.40
2023-03-16T08:03:12.127Z,5.40
2023-03-16T08:05:38.541Z,5.45
2023-03-16T08:08:05.259Z,5.59
2023-03-16T08:10:32.366Z,5.65
2023-03-16T08:12:58.979Z,5.61
2023-03-16T08:15:25.441Z,5.75
2023-03-16T08:17:52.572Z,5.70
2023-03-16T08:20:19.298Z,5.81
2023-03-16T08:22:46.584Z,5.75
2023-03-16T08:25:14.500Z,5.86
2023-03-16T08:27:42.951Z,5.73
2023-03-16T08:30:12.586Z,5.93
2023-03-16T08:32:40.087Z,5.88
2023-03-16T08:35:16.689Z,5.89
2023-03-16T08:37:43.722Z,5.91
2023-03-16T08:40:13.788Z,5.96
2023-03-16T08:42:41.254Z,5.77
2023-03-16T08:45:12.312Z,5.70
2023-03-16T08:47:40.619Z,5.87
2023-03-16T08:50:09.229Z,5.78
2023-03-16T08:52:36.494Z,5.94
2023-03-16T08:55:07.248Z,5.85
2023-03-16T08:57:34.132Z,5.69
2023-03-16T09:00:01.267Z,6.11
2023-03-16T09:02:27.708Z,6.10
2023-03-16T09:04:54.704Z,6.23
2023-03-16T09:07:21.890Z,6.28
2023-03-16T09:09:48.313Z,6.26
2023-03-16T09:12:14.716Z,6.40
2023-03-16T09:14:41.082Z,6.39
2023-03-16T09:17:07.793Z,6.37
2023-03-16T09:19:50.012Z,6.36
2023-03-16T09:22:19.451Z,6.30
2023-03-16T09:24:45.853Z,6.39
2023-03-16T09:27:12.333Z,6.44
2023-03-16T09:29:38.804Z,6.40
2023-03-16T09:32:05.388Z,6.24
2023-03-16T09:34:33.289Z,6.46
2023-03-16T09:37:00.414Z,6.38
2023-03-16T09:39:27.118Z,6.56
2023-03-16T09:42:13.759Z,6.32
2023-03-16T09:45:23.897Z,6.50
2023-03-16T09:47:56.404Z,6.43
2023-03-16T09:50:47.295Z,6.59
2023-03-16T09:53:27.237Z,6.40
2023-03-16T09:56:11.055Z,6.76
2023-03-16T09:58:37.436Z,6.75
2023-03-16T10:01:17.257Z,6.92
2023-03-16T10:04:00.543Z,6.87
2023-03-16T10:06:28.140Z,6.69
2023-03-16T10:09:05.505Z,6.90
2023-03-16T10:11:37.941Z,7.12
2023-03-16T10:14:11.114Z,7.16
2023-03-16T10:16:55.995Z,7.22
2023-03-16T10:19:54.432Z,7.55
2023-03-16T10:22:22.121Z,8.03
2023-03-16T10:24:55.495Z,7.70
2023-03-16T10:27:29.975Z,7.64
2023-03-16T10:29:56.746Z,7.55
2023-03-16T10:32:29.251Z,7.64
2023-03-16T10:35:01.114Z,7.80
2023-03-16T10:37:30.036Z,7.41
2023-03-16T10:39:57.238Z,7.10
2023-03-16T10:42:24.326Z,7.29
2023-03-16T10:44:58.032Z,7.23
2023-03-16T10:47:29.393Z,7.25
2023-03-16T10:49:55.766Z,7.25
2023-03-16T10:52:22.184Z,7.19
2023-03-16T10:55:02.419Z,7.32
2023-03-16T10:57:34.675Z,7.13
2023-03-16T11:00:14.805Z,6.98
2023-03-16T11:02:42.108Z,6.86
2023-03-16T11:05:13.675Z,7.01
2023-03-16T11:07:48.224Z,6.97
2023-03-16T11:10:29.674Z,7.11
2023-03-16T11:13:10.940Z,7.10
2023-03-16T11:15:45.551Z,7.05
2023-03-16T11:18:35.580Z,7.11
2023-03-16T11:21:12.789Z,7.05
2023-03-16T11:23:44.431Z,7.06
2023-03-16T11:26:21.143Z,7.02
2023-03-16T11:28:54.498Z,7.14
2023-03-16T11:31:33.388Z,7.10
2023-03-16T11:33:59.812Z,7.16
2023-03-16T11:36:44.193Z,7.08
2023-03-16T11:39:10.786Z,7.15
2023-03-16T11:42:15.648Z,7.07
2023-03-16T11:45:05.508Z,7.04
2023-03-16T11:47:50.836Z,7.10
2023-03-16T11:50:34.650Z,7.11
2023-03-16T11:53:28.489Z,7.09
2023-03-16T11:56:13.084Z,7.18
2023-03-16T11:59:12.956Z,7.12
2023-03-16T12:02:11.650Z,7.09
2023-03-16T12:05:30.280Z,7.25
2023-03-16T12:08:15.311Z,7.36
2023-03-16T12:11:13.279Z,7.54
2023-03-16T12:14:10.597Z,7.33
2023-03-16T12:16:51.305Z,7.33
2023-03-16T12:19:24.816Z,7.56
2023-03-16T12:22:04.139Z,7.50
2023-03-16T12:24:38.923Z,7.52
2023-03-16T12:27:08.560Z,7.29
2023-03-16T12:29:45.790Z,7.66
2023-03-16T12:32:19.141Z,7.72
2023-03-16T12:35:00.044Z,7.73
2023-03-16T12:37:29.953Z,7.83
2023-03-16T12:40:09.028Z,8.01
2023-03-16T12:42:50.429Z,8.13
2023-03-16T12:45:30.142Z,8.31
2023-03-16T12:48:28.580Z,8.22
2023-03-16T12:50:58.576Z,8.49
2023-03-16T12:53:38.559Z,8.35
2023-03-16T12:56:09.945Z,8.36
2023-03-16T12:58:41.918Z,8.44
2023-03-16T13:01:11.562Z,8.64
2023-03-16T13:03:38.760Z,8.93
2023-03-16T13:06:05.865Z,8.87
2023-03-16T13:08:46.568Z,8.76
2023-03-16T13:11:14.679Z,8.70
2023-03-16T13:13:53.654Z,8.73
2023-03-16T13:16:30.377Z,9.05
2023-03-16T13:18:57.331Z,8.95
2023-03-16T13:21:39.177Z,8.72
2023-03-16T13:24:21.540Z,8.94
2023-03-16T13:26:52.098Z,9.13
2023-03-16T13:29:21.585Z,9.31
2023-03-16T13:31:48.598Z,9.20
2023-03-16T13:34:20.943Z,9.11
2023-03-16T13:36:50.149Z,9.28
2023-03-16T13:39:22.410Z,9.34
2023-03-16T13:42:18.689Z,9.03
2023-03-16T13:44:45.710Z,9.13
2023-03-16T13:47:14.770Z,9.14
2023-03-16T13:49:50.863Z,9.25
2023-03-16T13:52:22.309Z,9.28
2023-03-16T13:54:51.328Z,9.38
2023-03-16T13:57:23.284Z,9.60
2023-03-16T13:59:50.199Z,9.70
2023-03-16T14:02:22.374Z,9.97
2023-03-16T14:04:48.956Z,10.50
2023-03-16T14:07:17.992Z,10.50
2023-03-16T14:09:46.654Z,10.28
2023-03-16T14:12:15.018Z,10.33
2023-03-16T14:14:41.640Z,10.37
2023-03-16T14:17:13.700Z,10.41
2023-03-16T14:19:47.624Z,10.67
2023-03-16T14:22:29.218Z,10.52
2023-03-16T14:24:59.117Z,10.22
2023-03-16T14:27:32.905Z,10.04
2023-03-16T14:30:24.414Z,9.78
2023-03-16T14:33:30.014Z,9.94
2023-03-16T14:35:59.484Z,10.23
2023-03-16T14:38:36.093Z,10.07
2023-03-16T14:41:15.245Z,10.00
2023-03-16T14:43:59.473Z,9.88
2023-03-16T14:46:32.936Z,10.10
2023-03-16T14:49:15.662Z,9.69
2023-03-16T14:51:42.147Z,10.15
2023-03-16T14:54:22.258Z,9.98
2023-03-16T14:56:59.497Z,10.01
2023-03-16T14:59:26.183Z,10.11
2023-03-16T15:01:54.449Z,10.18
2023-03-16T15:04:27.887Z,10.46
2023-03-16T15:06:55.171Z,10.58
2023-03-16T15:09:33.316Z,10.91
2023-03-16T15:11:59.800Z,10.66
2023-03-16T15:14:44.762Z,11.04
2023-03-16T15:17:11.708Z,10.84
2023-03-16T15:19:38.133Z,10.81
2023-03-16T15:22:05.587Z,10.84
2023-03-16T15:24:33.313Z,10.85
2023-03-16T15:27:00.608Z,10.51
2023-03-16T15:29:27.135Z,10.64
2023-03-16T15:31:54.645Z,10.44
2023-03-16T15:34:22.437Z,10.83
2023-03-16T15:36:49.034Z,10.57
2023-03-16T15:39:24.626Z,10.62
2023-03-16T15:41:50.992Z,10.67
2023-03-16T15:44:17.472Z,10.77
2023-03-16T15:46:44.294Z,10.79
2023-03-16T15:49:10.786Z,10.43
2023-03-16T15:51:37.254Z,10.40
2023-03-16T15:54:06.069Z,10.45
2023-03-16T15:56:47.237Z,10.17
2023-03-16T15:59:20.137Z,10.18
2023-03-16T16:01:47.936Z,9.91
2023-03-16T16:04:20.147Z,10.14
2023-03-16T16:06:47.839Z,10.21
2023-03-16T16:09:14.820Z,10.03
2023-03-16T16:11:41.855Z,10.23
2023-03-16T16:14:23.336Z,10.08
2023-03-16T16:16:50.294Z,9.96
2023-03-16T16:19:16.781Z,9.83
2023-03-16T16:21:43.812Z,10.05
2023-03-16T16:24:10.770Z,10.14
2023-03-16T16:26:50.104Z,10.21
2023-03-16T16:29:22.484Z,10.18
2023-03-16T16:31:49.290Z,10.05
2023-03-16T16:34:18.334Z,10.06
2023-03-16T16:36:44.810Z,10.07
2023-03-16T16:39:11.742Z,9.99
2023-03-16T16:41:39.097Z,9.69
2023-03-16T16:44:13.443Z,9.84
2023-03-16T16:46:41.390Z,9.67
2023-03-16T16:49:15.444Z,9.65
2023-03-16T16:51:42.588Z,9.65
2023-03-16T16:54:18.135Z,9.63
2023-03-16T16:56:46.430Z,9.43
2023-03-16T16:59:20.116Z,9.32
2023-03-16T17:01:48.076Z,9.19
2023-03-16T17:04:18.444Z,9.22
2023-03-16T17:06:46.046Z,9.08
2023-03-16T17:09:14.247Z,9.06
2023-03-16T17:11:42.207Z,9.06
2023-03-16T17:14:09.533Z,8.91
2023-03-16T17:16:39.142Z,8.81
2023-03-16T17:19:16.137Z,8.81
2023-03-16T17:21:42.494Z,8.52
2023-03-16T17:24:08.882Z,8.73
2023-03-16T17:26:42.609Z,8.64
2023-03-16T17:29:24.252Z,8.61
2023-03-16T17:31:51.120Z,8.52
2023-03-16T17:34:23.170Z,8.47
2023-03-16T17:36:50.275Z,8.41
2023-03-16T17:39:22.453Z,8.39
2023-03-16T17:41:55.964Z,8.30
2023-03-16T17:44:22.530Z,8.20
2023-03-16T17:46:49.028Z,8.28
2023-03-16T17:49:18.154Z,8.21
2023-03-16T17:51:46.488Z,8.19
2023-03-16T17:54:13.455Z,8.18
2023-03-16T17:56:40.531Z,8.22
2023-03-16T17:59:17.425Z,8.24
2023-03-16T18:01:45.950Z,8.15
2023-03-16T18:04:21.509Z,8.14
2023-03-16T18:06:48.402Z,8.14
2023-03-16T18:09:16.277Z,8.14
2023-03-16T18:11:47.915Z,8.10
2023-03-16T18:14:43.751Z,8.19
2023-03-16T18:17:21.445Z,8.11
2023-03-16T18:19:48.750Z,8.12
2023-03-16T18:22:21.111Z,7.81
2023-03-16T18:24:48.948Z,8.28
2023-03-16T18:27:15.995Z,8.28
2023-03-16T18:29:42.513Z,8.30
2023-03-16T18:32:30.143Z,8.19
2023-03-16T18:34:57.225Z,8.11
2023-03-16T18:37:27.332Z,8.11
2023-03-16T18:39:54.906Z,8.11
2023-03-16T18:42:29.354Z,8.17
2023-03-16T18:44:55.775Z,8.11
2023-03-16T18:47:24.067Z,8.14
2023-03-16T18:49:53.970Z,8.15
2023-03-16T18:52:29.140Z,8.16
2023-03-16T18:54:55.992Z,8.17
2023-03-16T18:57:25.002Z,8.22
2023-03-16T18:59:51.651Z,8.14
2023-03-16T19:02:37.364Z,8.29
2023-03-16T19:05:07.855Z,8.00
2023-03-16T19:07:40.108Z,8.28
2023-03-16T19:10:37.769Z,8.32
2023-03-16T19:13:13.510Z,8.34
2023-03-16T19:15:40.354Z,8.34
2023-03-16T19:18:06.803Z,8.30
2023-03-16T19:20:34.796Z,8.26
2023-03-16T19:23:03.361Z,8.24
2023-03-16T19:25:34.075Z,8.22
2023-03-16T19:28:01.079Z,8.23
2023-03-16T19:30:29.692Z,8.17
2023-03-16T19:32:57.166Z,8.21
2023-03-16T19:35:40.053Z,8.12
2023-03-16T19:38:12.630Z,7.98
2023-03-16T19:40:39.028Z,8.21
2023-03-16T19:43:05.788Z,8.14
2023-03-16T19:45:36.818Z,8.23
2023-03-16T19:48:10.204Z,8.18
2023-03-16T19:50:36.626Z,8.17
2023-03-16T19:53:13.343Z,8.13
2023-03-16T19:55:39.781Z,8.09
2023-03-16T19:58:07.549Z,8.09
2023-03-16T20:00:34.729Z,8.20
2023-03-16T20:03:01.394Z,8.01
2023-03-16T20:05:30.435Z,7.83
2023-03-16T20:07:59.483Z,8.05
2023-03-16T20:10:28.875Z,7.90
2023-03-16T20:13:00.594Z,7.93
2023-03-16T20:15:32.430Z,7.95
2023-03-16T20:17:59.857Z,7.98
2023-03-16T20:20:29.014Z,7.90
2023-03-16T20:22:59.105Z,7.92
2023-03-16T20:25:30.650Z,7.94
2023-03-16T20:28:01.200Z,7.93
2023-03-16T20:30:29.454Z,7.91
2023-03-16T20:32:56.755Z,7.93
2023-03-16T20:35:25.830Z,8.00
2023-03-16T20:37:52.885Z,7.78
2023-03-16T20:40:20.723Z,8.02
2023-03-16T20:42:48.089Z,8.01
2023-03-16T20:45:24.193Z,7.99
2023-03-16T20:47:52.252Z,8.07
2023-03-16T20:50:22.605Z,8.09
2023-03-16T20:52:49.966Z,8.11
2023-03-16T20:55:19.710Z,8.25
2023-03-16T20:57:47.489Z,8.34
2023-03-16T21:00:19.322Z,8.36
2023-03-16T21:02:47.184Z,8.39
2023-03-16T21:05:15.732Z,8.38
2023-03-16T21:07:42.421Z,8.42
2023-03-16T21:10:09.500Z,8.40
2023-03-16T21:12:40.601Z,8.36
2023-03-16T21:15:22.058Z,8.34
2023-03-16T21:17:54.340Z,8.39
2023-03-16T21:20:21.518Z,8.41
2023-03-16T21:22:47.976Z,8.39
2023-03-16T21:25:26.212Z,8.35
2023-03-16T21:27:54.899Z,8.47
2023-03-16T21:30:31.735Z,8.55
2023-03-16T21:33:01.704Z,8.57
2023-03-16T21:35:36.330Z,8.67
2023-03-16T21:38:19.013Z,8.64
2023-03-16T21:40:46.988Z,8.71
2023-03-16T21:43:14.247Z,8.68
2023-03-16T21:45:41.798Z,8.73
2023-03-16T21:48:18.842Z,8.81
2023-03-16T21:50:45.387Z,8.89
2023-03-16T21:53:19.750Z,8.86
2023-03-16T21:55:47.245Z,8.79
2023-03-16T21:58:14.080Z,8.88
2023-03-16T22:00:40.615Z,8.88
2023-03-16T22:03:50.142Z,8.78
2023-03-16T22:06:17.639Z,8.82
2023-03-16T22:08:44.175Z,8.83
2023-03-16T22:11:19.034Z,8.77
2023-03-16T22:13:46.423Z,8.76
2023-03-16T22:16:16.263Z,8.74
2023-03-16T22:18:44.557Z,8.77
2023-03-16T22:21:32.442Z,8.73
2023-03-16T22:24:00.049Z,8.73
2023-03-16T22:26:28.521Z,8.51
2023-03-16T22:28:56.216Z,8.64
2023-03-16T22:31:32.745Z,8.66
2023-03-16T22:34:00.666Z,8.69
2023-03-16T22:36:27.754Z,8.65
2023-03-16T22:39:01.283Z,8.56
2023-03-16T22:41:29.294Z,8.59
2023-03-16T22:43:56.699Z,8.39
2023-03-16T22:46:27.970Z,8.45
2023-03-16T22:48:55.548Z,8.51
2023-03-16T22:51:36.977Z,8.46
2023-03-16T22:54:06.877Z,8.18
2023-03-16T22:56:35.114Z,8.34
2023-03-16T22:59:05.982Z,8.35
2023-03-16T23:01:39.563Z,8.37
2023-03-16T23:04:24.670Z,8.27
2023-03-16T23:06:53.482Z,8.21
2023-03-16T23:09:21.723Z,8.19
2023-03-16T23:11:53.495Z,8.07
2023-03-16T23:14:23.308Z,7.98
2023-03-16T23:16:51.889Z,8.04
2023-03-16T23:19:27.336Z,7.95
2023-03-16T23:21:55.700Z,7.93
2023-03-16T23:24:22.500Z,7.86
2023-03-16T23:26:51.004Z,7.82
2023-03-16T23:29:17.882Z,7.73
2023-03-16T23:31:44.343Z,7.76
2023-03-16T23:34:12.418Z,7.78
2023-03-16T23:36:38.969Z,7.77
2023-03-16T23:39:05.572Z,7.71
2023-03-16T23:41:32.092Z,7.70
2023-03-16T23:43:58.662Z,7.81
2023-03-16T23:46:26.546Z,7.77
2023-03-16T23:48:55.584Z,7.81
2023-03-16T23:51:27.375Z,7.82
2023-03-16T23:53:54.022Z,7.76
2023-03-16T23:56:21.526Z,7.68
2023-03-16T23:58:48.208Z,7.65
